Main page
METAR-TAF:

METAR-TAF

Airports :

Caracas, Venezuela

Simón Bolívar International Airport

latitude: 10-36N, longitude: 066-59W, elevation: 43 m

Current weather observation

The report was made 1 hour and 24 minutes ago, at 20:00 UTC
Wind 4 kt from the Northeast
Temperature 31°C
Humidity 59%
Pressure 1011 hPa
Visibility 10 km or more
Scattered clouds at a height of 1600 ft
Broken clouds at a height of 30000 ft

METAR: SVMI 222000Z 05004KT 9999 SCT016 BKN300 31/22 Q1011

Time: 17:24 (21:24 UTC)

Forecast

The report was made 5 hours and 24 minutes ago, at 16:00 UTC
Forecast valid from 22 at 18 UTC to 23 at 18 UTC
Wind 4 kt from the West
Visibility 10 km or more
Scattered clouds at a height of 1600 ft
Becoming
from 22 at 18 UTC to 22 at 22 UTC
Wind 7 kt from the East/Northeast
Visibility: 9000 m
Broken clouds at a height of 1600 ft
in the vicinity, drizzle

TAF: SVMI 221600Z 2218/2318 27004KT 9999 SCT016 TX33/18Z TN25/09Z BECMG 2218/2222 07007KT 9000 VCDZ BKN016

Weather observations and forecasts of more than 4000 airports (METAR and TAF reports).

The available stations are represented by yellow and red dots on the map.

Hover mouse over dot to see the name of the station.

Then click to see weather observations and forecasts.

To change the map : click on the green buttons with a black cross to zoom in, on the green button with a dash to zoom out, or on the green arrows for adjacent maps.


METAR-TAF: